Lohrville, Iowa
Current Conditions -  °F | °C
As of 8:15 AM on Saturday 20 Dec 2014 (Local Time) from KCIN Reporting Station
Haze Haze  
Wind Chill: 24°   Ceiling: 300
Heat Index: 30°   Visibility: 1.5mi
Dew Point: 30°   Wind: 6mph
Humidity: 100%   Direction: 160°SSE
Pressure: 30.13"   Gusts: NA
Location:  42.27°N, 94.55°W
Report Text: KCIN 201415Z AUTO 16005KT 1 1/2SM BR OVC003 M01/M01 A3013 RMK AO2
Loading
Personal Weather Stations






























Interactive Weather Map New forecast layout! Learn more

10-Day Weather Forecast

Advertisements
Track Severe Weather on mobile